createdAt,value
2022-10-19T00:00:24.488Z,0.00
2022-10-19T00:01:24.491Z,0.00
2022-10-19T00:02:24.549Z,0.00
2022-10-19T00:03:24.452Z,0.00
2022-10-19T00:04:24.426Z,0.00
2022-10-19T00:05:24.427Z,0.00
2022-10-19T00:06:24.466Z,0.00
2022-10-19T00:07:24.392Z,0.00
2022-10-19T00:08:24.384Z,0.00
2022-10-19T00:09:24.397Z,0.00
2022-10-19T00:10:24.366Z,0.00
2022-10-19T00:11:24.355Z,0.00
2022-10-19T00:12:24.345Z,0.00
2022-10-19T00:13:24.321Z,0.00
2022-10-19T00:14:24.301Z,0.00
2022-10-19T00:15:24.290Z,0.00
2022-10-19T00:16:24.301Z,0.00
2022-10-19T00:17:24.279Z,0.00
2022-10-19T00:18:24.251Z,0.00
2022-10-19T00:19:24.276Z,0.00
2022-10-19T00:20:24.257Z,0.00
2022-10-19T00:21:24.220Z,0.00
2022-10-19T00:22:24.255Z,0.00
2022-10-19T00:23:24.197Z,0.00
2022-10-19T00:24:24.187Z,0.00
2022-10-19T00:25:24.173Z,0.00
2022-10-19T00:26:24.159Z,0.00
2022-10-19T00:27:24.143Z,0.00
2022-10-19T00:28:24.118Z,0.00
2022-10-19T00:29:24.127Z,0.00
2022-10-19T00:30:24.098Z,0.00
2022-10-19T00:31:24.082Z,0.00
2022-10-19T00:32:24.098Z,0.00
2022-10-19T00:33:24.059Z,0.00
2022-10-19T00:34:24.045Z,0.00
2022-10-19T00:35:24.055Z,0.00
2022-10-19T00:36:24.018Z,0.00
2022-10-19T00:37:24.008Z,0.00
2022-10-19T00:38:24.000Z,0.00
2022-10-19T00:39:23.980Z,0.00
2022-10-19T00:40:23.972Z,0.00
2022-10-19T00:41:23.980Z,0.00
2022-10-19T00:42:23.950Z,0.00
2022-10-19T00:43:23.936Z,0.00
2022-10-19T00:44:23.973Z,0.00
2022-10-19T00:45:23.900Z,0.00
2022-10-19T00:46:23.890Z,0.00
2022-10-19T00:47:24.518Z,0.00
2022-10-19T00:48:23.897Z,0.00
2022-10-19T00:49:23.862Z,0.00
2022-10-19T00:50:23.839Z,0.00
2022-10-19T00:51:23.839Z,0.00
2022-10-19T00:52:23.820Z,0.00
2022-10-19T00:53:29.825Z,0.00
2022-10-19T00:54:23.786Z,0.00
2022-10-19T00:55:23.776Z,0.00
2022-10-19T00:56:23.760Z,0.00
2022-10-19T00:57:23.773Z,0.00
2022-10-19T00:58:23.747Z,0.00
2022-10-19T00:59:23.742Z,0.00
2022-10-19T01:00:23.720Z,0.00
2022-10-19T01:01:23.744Z,0.00
2022-10-19T01:02:23.700Z,0.00
2022-10-19T01:03:23.679Z,0.00
2022-10-19T01:04:23.689Z,0.00
2022-10-19T01:05:23.658Z,0.00
2022-10-19T01:06:23.636Z,0.00
2022-10-19T01:07:23.630Z,0.00
2022-10-19T01:08:23.621Z,0.00
2022-10-19T01:09:23.882Z,0.00
2022-10-19T01:10:23.586Z,0.00
2022-10-19T01:11:23.579Z,0.00
2022-10-19T01:12:23.559Z,0.00
2022-10-19T01:13:23.543Z,0.00
2022-10-19T01:14:23.529Z,0.00
2022-10-19T01:15:23.529Z,0.00
2022-10-19T01:16:23.511Z,0.00
2022-10-19T01:17:23.506Z,0.00
2022-10-19T01:18:23.489Z,0.00
2022-10-19T01:19:23.470Z,0.00
2022-10-19T01:20:23.454Z,0.00
2022-10-19T01:21:23.455Z,0.00
2022-10-19T01:22:23.429Z,0.00
2022-10-19T01:23:23.427Z,0.00
2022-10-19T01:24:23.640Z,0.00
2022-10-19T01:25:23.396Z,0.00
2022-10-19T01:26:23.383Z,0.00
2022-10-19T01:27:23.364Z,0.00
2022-10-19T01:28:23.372Z,0.00
2022-10-19T01:29:23.353Z,0.00
2022-10-19T01:30:23.328Z,0.00
2022-10-19T01:31:23.948Z,0.00
2022-10-19T01:32:23.307Z,0.00
2022-10-19T01:33:23.289Z,0.00
2022-10-19T01:34:23.282Z,0.00
2022-10-19T01:35:23.268Z,0.00
2022-10-19T01:36:23.252Z,0.00
2022-10-19T01:37:23.242Z,0.00
2022-10-19T01:38:23.228Z,0.00
2022-10-19T01:39:23.215Z,0.00
2022-10-19T01:40:23.196Z,0.00
2022-10-19T01:41:23.197Z,0.00
2022-10-19T01:42:23.171Z,0.00
2022-10-19T01:43:23.164Z,0.00
2022-10-19T01:44:23.147Z,0.00
2022-10-19T01:45:23.134Z,0.00
2022-10-19T01:46:23.125Z,0.00
2022-10-19T01:47:23.123Z,0.00
2022-10-19T01:48:23.106Z,0.00
2022-10-19T01:49:23.085Z,0.00
2022-10-19T01:50:23.067Z,0.00
2022-10-19T01:51:23.054Z,0.00
2022-10-19T01:52:23.043Z,0.00
2022-10-19T01:53:23.048Z,0.00
2022-10-19T01:54:23.031Z,0.00
2022-10-19T01:55:23.015Z,0.00
2022-10-19T01:56:22.991Z,0.00
2022-10-19T01:57:23.053Z,0.00
2022-10-19T01:58:23.028Z,0.00
2022-10-19T01:59:22.975Z,0.00
2022-10-19T02:00:22.963Z,0.00
2022-10-19T02:01:22.944Z,0.00
2022-10-19T02:02:22.911Z,0.00
2022-10-19T02:03:22.902Z,0.00
2022-10-19T02:04:22.896Z,0.00
2022-10-19T02:05:22.890Z,0.00
2022-10-19T02:06:22.862Z,0.00
2022-10-19T02:07:22.947Z,0.00
2022-10-19T02:08:22.837Z,0.00
2022-10-19T02:09:22.831Z,0.00
2022-10-19T02:10:22.825Z,0.00
2022-10-19T02:11:22.806Z,0.00
2022-10-19T02:12:22.787Z,0.00
2022-10-19T02:13:22.775Z,0.00
2022-10-19T02:14:22.762Z,0.00
2022-10-19T02:15:22.749Z,0.00
2022-10-19T02:16:22.735Z,0.00
2022-10-19T02:17:22.786Z,0.00
2022-10-19T02:18:22.711Z,0.00
2022-10-19T02:20:22.683Z,0.00
2022-10-19T02:21:22.678Z,0.00
2022-10-19T02:22:22.659Z,0.00
2022-10-19T02:23:22.658Z,0.00
2022-10-19T02:24:22.631Z,0.00
2022-10-19T02:25:22.628Z,0.00
2022-10-19T02:26:22.616Z,0.00
2022-10-19T02:27:22.644Z,0.00
2022-10-19T02:28:22.630Z,0.00
2022-10-19T02:29:22.592Z,0.00
2022-10-19T02:30:22.555Z,0.00
2022-10-19T02:31:22.545Z,0.00
2022-10-19T02:32:22.535Z,0.00
2022-10-19T02:33:22.514Z,0.00
2022-10-19T02:34:22.500Z,0.00
2022-10-19T02:35:22.509Z,0.00
2022-10-19T02:36:22.495Z,0.00
2022-10-19T02:37:24.766Z,0.00
2022-10-19T02:38:22.450Z,0.00
2022-10-19T02:39:22.439Z,0.00
2022-10-19T02:40:22.474Z,0.00
2022-10-19T02:41:22.420Z,0.00
2022-10-19T02:42:22.402Z,0.00
2022-10-19T02:43:22.406Z,0.00
2022-10-19T02:44:22.381Z,0.00
2022-10-19T02:45:22.376Z,0.00
2022-10-19T02:46:22.411Z,0.00
2022-10-19T02:47:22.493Z,0.00
2022-10-19T02:48:22.333Z,0.00
2022-10-19T02:49:22.315Z,0.00
2022-10-19T02:50:22.348Z,0.00
2022-10-19T02:51:22.291Z,0.00
2022-10-19T02:52:22.286Z,0.00
2022-10-19T02:53:22.314Z,0.00
2022-10-19T02:54:22.246Z,0.00
2022-10-19T02:55:22.235Z,0.00
2022-10-19T02:56:22.228Z,0.00
2022-10-19T02:57:22.324Z,0.00
2022-10-19T02:58:22.195Z,0.00
2022-10-19T02:59:22.221Z,0.00
2022-10-19T03:00:22.201Z,0.00
2022-10-19T03:01:22.164Z,0.00
2022-10-19T03:02:22.149Z,0.00
2022-10-19T03:03:22.148Z,0.00
2022-10-19T03:04:22.126Z,0.00
2022-10-19T03:05:22.133Z,0.00
2022-10-19T03:06:22.135Z,0.00
2022-10-19T03:07:22.081Z,0.00
2022-10-19T03:08:22.070Z,0.00
2022-10-19T03:09:22.096Z,0.00
2022-10-19T03:10:22.045Z,0.00
2022-10-19T03:11:22.053Z,0.00
2022-10-19T03:12:22.021Z,0.00
2022-10-19T03:13:22.016Z,0.00
2022-10-19T03:14:21.992Z,0.00
2022-10-19T03:15:21.986Z,0.00
2022-10-19T03:16:21.979Z,0.00
2022-10-19T03:17:21.964Z,0.00
2022-10-19T03:18:21.940Z,0.00
2022-10-19T03:19:21.941Z,0.00
2022-10-19T03:20:21.925Z,0.00
2022-10-19T03:21:21.902Z,0.00
2022-10-19T03:22:21.943Z,0.00
2022-10-19T03:23:21.903Z,0.00
2022-10-19T03:24:21.865Z,0.00
2022-10-19T03:25:21.856Z,0.00
2022-10-19T03:26:21.858Z,0.00
2022-10-19T03:27:21.831Z,0.00
2022-10-19T03:28:21.813Z,0.00
2022-10-19T03:29:21.813Z,0.00
2022-10-19T03:30:21.794Z,0.00
2022-10-19T03:31:21.783Z,0.00
2022-10-19T03:32:21.775Z,0.00
2022-10-19T03:33:21.791Z,0.00
2022-10-19T03:34:21.740Z,0.00
2022-10-19T03:35:21.798Z,0.00
2022-10-19T03:36:21.720Z,0.00
2022-10-19T03:37:21.704Z,0.00
2022-10-19T03:38:21.736Z,0.00
2022-10-19T03:39:21.680Z,0.00
2022-10-19T03:40:21.668Z,0.00
2022-10-19T03:41:21.660Z,0.00
2022-10-19T03:42:21.665Z,0.00
2022-10-19T03:43:21.630Z,0.00
2022-10-19T03:44:21.613Z,0.00
2022-10-19T03:45:21.613Z,0.00
2022-10-19T03:46:21.616Z,0.00
2022-10-19T03:47:21.610Z,0.00
2022-10-19T03:48:21.575Z,0.00
2022-10-19T03:49:21.573Z,0.00
2022-10-19T03:50:21.546Z,0.00
2022-10-19T03:51:21.547Z,0.00
2022-10-19T03:52:21.518Z,0.00
2022-10-19T03:53:21.518Z,0.00
2022-10-19T03:54:23.717Z,0.00
2022-10-19T03:55:21.483Z,0.00
2022-10-19T03:56:21.475Z,0.00
2022-10-19T03:57:21.461Z,0.00
2022-10-19T03:58:21.459Z,0.00
2022-10-19T03:59:21.489Z,0.00
2022-10-19T04:00:21.410Z,0.00
2022-10-19T04:01:21.441Z,0.00
2022-10-19T04:02:21.426Z,0.00
2022-10-19T04:03:21.374Z,0.00
2022-10-19T04:04:21.362Z,0.00
2022-10-19T04:05:21.363Z,0.00
2022-10-19T04:06:22.189Z,0.00
2022-10-19T04:07:21.382Z,0.00
2022-10-19T04:08:21.305Z,0.00
2022-10-19T04:09:21.296Z,0.00
2022-10-19T04:10:21.336Z,0.00
2022-10-19T04:11:21.294Z,0.00
2022-10-19T04:12:21.262Z,0.00
2022-10-19T04:13:21.313Z,0.00
2022-10-19T04:14:31.822Z,0.00
2022-10-19T04:15:21.221Z,0.00
2022-10-19T04:16:21.209Z,0.00
2022-10-19T04:17:21.234Z,0.00
2022-10-19T04:18:21.180Z,0.00
2022-10-19T04:19:21.165Z,0.00
2022-10-19T04:20:21.200Z,0.00
2022-10-19T04:21:21.172Z,0.00
2022-10-19T04:22:21.134Z,0.00
2022-10-19T04:23:21.199Z,0.00
2022-10-19T04:24:21.112Z,0.00
2022-10-19T04:25:21.092Z,0.00
2022-10-19T04:26:21.112Z,0.00
2022-10-19T04:27:21.074Z,0.00
2022-10-19T04:28:21.051Z,0.00
2022-10-19T04:29:22.763Z,0.00
2022-10-19T04:30:21.113Z,0.00
2022-10-19T04:31:21.018Z,0.00
2022-10-19T04:32:21.000Z,0.00
2022-10-19T04:33:21.049Z,0.00
2022-10-19T04:34:20.977Z,0.00
2022-10-19T04:35:20.979Z,0.00
2022-10-19T04:36:20.993Z,0.00
2022-10-19T04:37:20.958Z,0.00
2022-10-19T04:38:20.941Z,0.00
2022-10-19T04:39:20.915Z,0.00
2022-10-19T04:40:20.911Z,0.00
2022-10-19T04:41:20.921Z,0.00
2022-10-19T04:42:20.887Z,0.00
2022-10-19T04:43:20.866Z,0.00
2022-10-19T04:44:20.940Z,0.00
2022-10-19T04:45:20.842Z,0.00
2022-10-19T04:46:20.833Z,0.00
2022-10-19T04:47:20.826Z,0.00
2022-10-19T04:48:20.802Z,0.00
2022-10-19T04:49:20.794Z,0.00
2022-10-19T04:50:20.777Z,0.00
2022-10-19T04:51:20.777Z,0.00
2022-10-19T04:52:20.752Z,0.00
2022-10-19T04:53:20.803Z,0.00
2022-10-19T04:54:20.736Z,0.00
2022-10-19T04:55:20.759Z,0.00
2022-10-19T04:56:20.707Z,0.00
2022-10-19T04:57:20.693Z,0.00
2022-10-19T04:58:20.688Z,0.00
2022-10-19T04:59:20.684Z,0.00
2022-10-19T05:00:20.652Z,0.00
2022-10-19T05:01:20.733Z,0.00
2022-10-19T05:02:26.636Z,0.00
2022-10-19T05:03:20.614Z,0.00
2022-10-19T05:04:26.616Z,0.00
2022-10-19T05:05:20.581Z,0.00
2022-10-19T05:06:26.587Z,0.00
2022-10-19T05:07:20.612Z,0.00
2022-10-19T05:08:26.582Z,0.00
2022-10-19T05:09:20.537Z,0.00
2022-10-19T05:10:20.545Z,0.00
2022-10-19T05:11:20.506Z,0.00
2022-10-19T05:12:20.509Z,0.00
2022-10-19T05:13:20.489Z,0.00
2022-10-19T05:14:20.490Z,0.00
2022-10-19T05:15:20.463Z,0.00
2022-10-19T05:16:20.480Z,0.00
2022-10-19T05:17:20.896Z,0.00
2022-10-19T05:18:20.426Z,0.00
2022-10-19T05:19:20.411Z,0.00
2022-10-19T05:20:20.454Z,0.00
2022-10-19T05:21:20.354Z,1.00
2022-10-19T05:22:20.340Z,1.00
2022-10-19T05:23:20.452Z,0.00
2022-10-19T05:24:20.344Z,0.00
2022-10-19T05:25:20.290Z,2.00
2022-10-19T05:26:20.303Z,1.00
2022-10-19T05:27:20.268Z,1.00
2022-10-19T05:28:20.273Z,2.00
2022-10-19T05:29:20.226Z,1.00
2022-10-19T05:30:20.222Z,1.00
2022-10-19T05:31:20.212Z,5.00
2022-10-19T05:32:20.191Z,2.00
2022-10-19T05:33:20.189Z,2.00
2022-10-19T05:34:20.186Z,3.00
2022-10-19T05:35:22.447Z,5.00
2022-10-19T05:36:20.154Z,6.00
2022-10-19T05:37:20.132Z,8.00
2022-10-19T05:38:20.118Z,9.00
2022-10-19T05:39:20.179Z,13.00
2022-10-19T05:40:20.111Z,11.00
2022-10-19T05:41:20.085Z,11.00
2022-10-19T05:42:20.118Z,12.00
2022-10-19T05:43:20.061Z,15.00
2022-10-19T05:44:20.059Z,18.00
2022-10-19T05:45:20.074Z,24.00
2022-10-19T05:46:20.033Z,28.00
2022-10-19T05:47:20.007Z,35.00
2022-10-19T05:48:20.042Z,44.00
2022-10-19T05:49:19.989Z,61.00
2022-10-19T05:50:19.972Z,70.00
2022-10-19T05:51:20.087Z,90.00
2022-10-19T05:52:19.966Z,105.00
2022-10-19T05:53:19.927Z,128.00
2022-10-19T05:54:21.804Z,149.00
2022-10-19T05:55:19.905Z,172.00
2022-10-19T05:56:19.913Z,202.00
2022-10-19T05:57:19.880Z,235.00
2022-10-19T05:58:19.912Z,268.00
2022-10-19T05:59:19.876Z,299.00
2022-10-19T06:00:19.983Z,326.00
2022-10-19T06:01:19.849Z,357.00
2022-10-19T06:02:19.813Z,390.00
2022-10-19T06:03:19.806Z,423.00
2022-10-19T06:04:19.893Z,457.00
2022-10-19T06:05:19.780Z,487.00
2022-10-19T06:06:19.765Z,524.00
2022-10-19T06:07:19.762Z,565.00
2022-10-19T06:08:19.786Z,603.00
2022-10-19T06:09:19.735Z,637.00
2022-10-19T06:10:19.734Z,672.00
2022-10-19T06:11:19.708Z,710.00
2022-10-19T06:12:22.870Z,752.00
2022-10-19T06:13:19.718Z,791.00
2022-10-19T06:14:19.665Z,822.00
2022-10-19T06:15:19.693Z,836.00
2022-10-19T06:16:19.658Z,853.00
2022-10-19T06:17:19.642Z,894.00
2022-10-19T06:18:19.628Z,947.00
2022-10-19T06:19:19.599Z,1011.00
2022-10-19T06:20:19.601Z,1066.00
2022-10-19T06:21:19.644Z,1116.00
2022-10-19T06:22:19.617Z,1169.00
2022-10-19T06:23:19.593Z,1231.00
2022-10-19T06:24:19.583Z,1283.00
2022-10-19T06:25:20.467Z,1334.00
2022-10-19T06:26:19.552Z,1405.00
2022-10-19T06:27:19.577Z,1492.00
2022-10-19T06:28:19.508Z,1599.00
2022-10-19T06:29:19.494Z,1751.00
2022-10-19T06:30:19.510Z,1907.00
2022-10-19T06:31:19.465Z,1993.00
2022-10-19T06:32:19.498Z,2036.00
2022-10-19T06:33:19.438Z,2126.00
2022-10-19T06:34:19.501Z,2289.00
2022-10-19T06:35:19.426Z,2474.00
2022-10-19T06:36:19.466Z,2616.00
2022-10-19T06:37:19.383Z,2697.00
2022-10-19T06:38:19.370Z,2737.00
2022-10-19T06:39:19.355Z,2913.00
2022-10-19T06:40:19.476Z,3067.00
2022-10-19T06:41:19.335Z,3219.00
2022-10-19T06:42:19.437Z,3317.00
2022-10-19T06:43:19.465Z,3390.00
2022-10-19T06:44:19.485Z,3446.00
2022-10-19T06:45:19.391Z,3539.00
2022-10-19T06:46:19.299Z,3613.00
2022-10-19T06:47:19.260Z,3714.00
2022-10-19T06:48:19.233Z,3753.00
2022-10-19T06:49:19.248Z,3895.00
2022-10-19T06:50:19.223Z,4017.00
2022-10-19T06:51:19.396Z,4100.00
2022-10-19T06:52:19.221Z,4143.00
2022-10-19T06:53:19.176Z,4146.00
2022-10-19T06:54:19.162Z,4214.00
2022-10-19T06:55:19.147Z,4363.00
2022-10-19T06:56:19.145Z,4547.00
2022-10-19T06:57:19.134Z,4635.00
2022-10-19T06:58:19.133Z,4517.00
2022-10-19T06:59:19.138Z,4714.00
2022-10-19T07:00:19.081Z,4841.00
2022-10-19T07:01:19.148Z,4888.00
2022-10-19T07:02:19.074Z,5018.00
2022-10-19T07:03:19.040Z,5193.00
2022-10-19T07:04:19.070Z,5149.00
2022-10-19T07:05:19.039Z,5231.00
2022-10-19T07:06:19.004Z,5366.00
2022-10-19T07:07:19.009Z,5509.00
2022-10-19T07:08:19.008Z,5645.00
2022-10-19T07:09:18.975Z,5682.00
2022-10-19T07:10:18.978Z,5771.00
2022-10-19T07:11:18.946Z,5860.00
2022-10-19T07:12:18.954Z,6112.00
2022-10-19T07:13:18.924Z,6238.00
2022-10-19T07:14:18.907Z,6357.00
2022-10-19T07:15:18.923Z,6474.00
2022-10-19T07:16:21.280Z,6392.00
2022-10-19T07:17:18.863Z,6628.00
2022-10-19T07:18:18.892Z,6711.00
2022-10-19T07:19:18.852Z,6810.00
2022-10-19T07:20:18.835Z,7047.00
2022-10-19T07:21:18.953Z,6794.00
2022-10-19T07:22:23.283Z,7195.00
2022-10-19T07:23:18.826Z,7376.00
2022-10-19T07:24:19.054Z,7404.00
2022-10-19T07:25:18.779Z,7462.00
2022-10-19T07:26:18.783Z,7844.00
2022-10-19T07:27:18.749Z,7580.00
2022-10-19T07:28:19.363Z,7523.00
2022-10-19T07:29:18.724Z,8060.00
2022-10-19T07:30:18.718Z,8921.00
2022-10-19T07:31:18.718Z,8231.00
2022-10-19T07:32:18.725Z,8692.00
2022-10-19T07:33:18.674Z,8753.00
2022-10-19T07:34:18.715Z,9004.00
2022-10-19T07:35:18.650Z,8690.00
2022-10-19T07:36:18.658Z,8520.00
2022-10-19T07:37:18.652Z,9293.00
2022-10-19T07:38:18.721Z,10020.00
2022-10-19T07:39:18.620Z,10260.00
2022-10-19T07:40:18.591Z,10201.00
2022-10-19T07:41:18.576Z,9880.00
2022-10-19T07:42:18.601Z,10140.00
2022-10-19T07:43:18.582Z,10882.00
2022-10-19T07:44:18.529Z,9911.00
2022-10-19T07:45:18.801Z,10322.00
2022-10-19T07:46:18.540Z,9974.00
2022-10-19T07:47:18.499Z,10627.00
2022-10-19T07:48:18.502Z,12841.00
2022-10-19T07:49:18.510Z,13138.00
2022-10-19T07:50:18.509Z,11919.00
2022-10-19T07:51:18.493Z,11780.00
2022-10-19T07:52:30.751Z,11264.00
2022-10-19T07:53:18.441Z,11195.00
2022-10-19T07:54:18.455Z,10953.00
2022-10-19T07:55:19.434Z,11134.00
2022-10-19T07:56:18.445Z,11114.00
2022-10-19T07:57:18.398Z,10438.00
2022-10-19T07:58:18.448Z,10714.00
2022-10-19T07:59:18.642Z,10036.00
2022-10-19T08:00:20.668Z,11312.00
2022-10-19T08:01:18.348Z,11029.00
2022-10-19T08:02:19.266Z,10248.00
2022-10-19T08:03:57.602Z,11105.00
2022-10-19T08:04:55.923Z,10249.00
2022-10-19T08:05:18.522Z,11660.00
2022-10-19T08:06:30.709Z,13826.00
2022-10-19T08:07:18.517Z,15085.00
2022-10-19T08:08:18.629Z,15681.00
2022-10-19T08:09:47.416Z,17464.00
2022-10-19T08:10:18.266Z,16518.00
2022-10-19T08:11:18.380Z,16898.00
2022-10-19T08:12:18.470Z,16720.00
2022-10-19T08:13:18.442Z,17677.00
2022-10-19T08:14:18.191Z,16481.00
2022-10-19T08:15:20.214Z,18129.00
2022-10-19T08:16:18.201Z,15888.00
2022-10-19T08:17:18.171Z,14353.00
2022-10-19T08:18:19.677Z,16249.00
2022-10-19T08:19:18.121Z,16581.00
2022-10-19T08:20:18.753Z,18467.00
2022-10-19T08:21:18.156Z,16903.00
2022-10-19T08:22:18.346Z,17474.00
2022-10-19T08:23:18.229Z,20250.00
2022-10-19T08:24:18.057Z,17468.00
2022-10-19T08:25:18.024Z,19151.00
2022-10-19T08:26:18.024Z,18614.00
2022-10-19T08:27:18.279Z,18662.00
2022-10-19T08:28:19.474Z,19571.00
2022-10-19T08:29:17.978Z,21776.00
2022-10-19T08:30:17.978Z,19276.00
2022-10-19T08:31:18.486Z,18781.00
2022-10-19T08:32:20.106Z,20337.00
2022-10-19T08:33:17.931Z,20565.00
2022-10-19T08:34:18.208Z,19745.00
2022-10-19T08:35:17.911Z,19904.00
2022-10-19T08:36:18.747Z,21206.00
2022-10-19T08:37:26.402Z,22993.00
2022-10-19T08:38:18.105Z,21880.00
2022-10-19T08:39:19.226Z,20457.00
2022-10-19T08:40:18.130Z,20961.00
2022-10-19T08:41:17.827Z,23711.00
2022-10-19T08:42:17.934Z,24599.00
2022-10-19T08:43:19.052Z,22233.00
2022-10-19T08:44:18.069Z,22184.00
2022-10-19T08:45:19.351Z,22037.00
2022-10-19T08:46:18.625Z,25005.00
2022-10-19T08:47:22.298Z,26371.00
2022-10-19T08:48:17.744Z,23908.00
2022-10-19T08:49:17.734Z,25774.00
2022-10-19T08:50:17.744Z,24884.00
2022-10-19T08:51:17.712Z,27539.00
2022-10-19T08:52:18.424Z,26963.00
2022-10-19T08:53:17.708Z,26903.00
2022-10-19T08:54:19.680Z,26442.00
2022-10-19T08:55:20.574Z,24761.00
2022-10-19T08:56:38.879Z,25633.00
2022-10-19T08:57:19.489Z,27016.00
2022-10-19T08:58:18.033Z,26892.00
2022-10-19T08:59:17.833Z,25318.00
2022-10-19T09:00:21.672Z,26719.00
2022-10-19T09:01:21.596Z,25459.00
2022-10-19T09:02:18.499Z,23121.00
2022-10-19T09:03:32.083Z,24294.00
2022-10-19T09:04:17.591Z,22763.00
2022-10-19T09:05:24.655Z,26150.00
2022-10-19T09:06:18.415Z,25926.00
2022-10-19T09:07:18.334Z,25936.00
2022-10-19T09:08:49.545Z,28810.00
2022-10-19T09:09:18.344Z,29132.00
2022-10-19T09:10:17.508Z,25821.00
2022-10-19T09:11:17.468Z,24717.00
2022-10-19T09:12:17.432Z,28086.00
2022-10-19T09:14:00.574Z,26465.00
2022-10-19T09:14:17.441Z,26493.00
2022-10-19T09:15:22.407Z,24927.00
2022-10-19T09:16:17.413Z,25830.00
2022-10-19T09:17:17.620Z,29403.00
2022-10-19T09:18:23.189Z,28836.00
2022-10-19T09:19:19.218Z,31189.00
2022-10-19T09:20:18.026Z,30082.00
2022-10-19T09:21:17.311Z,31978.00
2022-10-19T09:22:17.567Z,32580.00
2022-10-19T09:23:17.507Z,27779.00
2022-10-19T09:24:18.067Z,30378.00
2022-10-19T09:25:17.245Z,31663.00
2022-10-19T09:26:17.995Z,30122.00
2022-10-19T09:27:17.246Z,33162.00
2022-10-19T09:28:19.500Z,34918.00
2022-10-19T09:29:18.876Z,33980.00
2022-10-19T09:30:17.274Z,35568.00
2022-10-19T09:31:17.179Z,30243.00
2022-10-19T09:32:17.147Z,33766.00
2022-10-19T09:33:17.125Z,34499.00
2022-10-19T09:34:17.144Z,35682.00
2022-10-19T09:35:17.105Z,33323.00
2022-10-19T09:36:22.546Z,36140.00
2022-10-19T09:37:24.834Z,21125.00
2022-10-19T09:38:17.310Z,33042.00
2022-10-19T09:39:17.347Z,27160.00
2022-10-19T09:40:17.097Z,33319.00
2022-10-19T09:41:17.034Z,33392.00
2022-10-19T09:42:17.010Z,34017.00
2022-10-19T09:43:17.014Z,71734.00
2022-10-19T09:44:17.019Z,33997.00
2022-10-19T09:45:16.984Z,32973.00
2022-10-19T09:46:27.460Z,32150.00
2022-10-19T09:47:16.947Z,73678.00
2022-10-19T09:48:16.942Z,73754.00
2022-10-19T09:49:16.928Z,73136.00
2022-10-19T09:50:16.920Z,73026.00
2022-10-19T09:51:16.921Z,72691.00
2022-10-19T09:52:16.941Z,35098.00
2022-10-19T09:53:16.873Z,35377.00
2022-10-19T09:54:16.877Z,34941.00
2022-10-19T09:55:16.891Z,37221.00
2022-10-19T09:56:16.877Z,35635.00
2022-10-19T09:57:16.860Z,32479.00
2022-10-19T09:58:16.884Z,37620.00
2022-10-19T09:59:16.815Z,28705.00
2022-10-19T10:00:16.937Z,34982.00
2022-10-19T10:01:16.784Z,73189.00
2022-10-19T10:02:16.779Z,73481.00
2022-10-19T10:03:16.808Z,73424.00
2022-10-19T10:04:16.795Z,34876.00
2022-10-19T10:05:16.724Z,33236.00
2022-10-19T10:06:16.746Z,34446.00
2022-10-19T10:07:16.706Z,73668.00
2022-10-19T10:08:16.676Z,73531.00
2022-10-19T10:09:16.692Z,74275.00
2022-10-19T10:10:17.494Z,73856.00
2022-10-19T10:11:16.945Z,71988.00
2022-10-19T10:12:16.627Z,33567.00
2022-10-19T10:13:16.720Z,35075.00
2022-10-19T10:14:16.625Z,31733.00
2022-10-19T10:15:16.618Z,74404.00
2022-10-19T10:16:18.226Z,74165.00
2022-10-19T10:17:16.612Z,74768.00
2022-10-19T10:18:16.625Z,75208.00
2022-10-19T10:19:16.560Z,74090.00
2022-10-19T10:20:17.283Z,75333.00
2022-10-19T10:21:16.536Z,76064.00
2022-10-19T10:22:16.576Z,75968.00
2022-10-19T10:23:16.596Z,76180.00
2022-10-19T10:24:16.658Z,75782.00
2022-10-19T10:25:16.803Z,73474.00
2022-10-19T10:26:17.731Z,73161.00
2022-10-19T10:27:16.709Z,73598.00
2022-10-19T10:28:16.811Z,74483.00
2022-10-19T10:29:16.679Z,74657.00
2022-10-19T10:30:16.441Z,75514.00
2022-10-19T10:31:16.421Z,75575.00
2022-10-19T10:32:16.396Z,74604.00
2022-10-19T10:33:27.126Z,75099.00
2022-10-19T10:34:23.188Z,75114.00
2022-10-19T10:35:16.356Z,73919.00
2022-10-19T10:36:16.396Z,73144.00
2022-10-19T10:37:16.362Z,73666.00
2022-10-19T10:38:16.308Z,74248.00
2022-10-19T10:39:16.293Z,74722.00
2022-10-19T10:40:19.848Z,74954.00
2022-10-19T10:41:16.265Z,75823.00
2022-10-19T10:42:16.265Z,76045.00
2022-10-19T10:43:16.272Z,76831.00
2022-10-19T10:44:16.237Z,69847.00
2022-10-19T10:45:16.256Z,23181.00
2022-10-19T10:46:16.329Z,75484.00
2022-10-19T10:47:16.951Z,76233.00
2022-10-19T10:48:16.201Z,75205.00
2022-10-19T10:49:16.185Z,76225.00
2022-10-19T10:50:16.252Z,76065.00
2022-10-19T10:51:16.211Z,76470.00
2022-10-19T10:52:24.600Z,76446.00
2022-10-19T10:53:16.107Z,75481.00
2022-10-19T10:54:16.111Z,73677.00
2022-10-19T10:55:22.992Z,72311.00
2022-10-19T10:56:19.075Z,35314.00
2022-10-19T10:57:17.243Z,74256.00
2022-10-19T10:58:16.371Z,74158.00
2022-10-19T10:59:17.169Z,76666.00
2022-10-19T11:00:16.041Z,72669.00
2022-10-19T11:01:16.359Z,70290.00
2022-10-19T11:02:16.091Z,32103.00
2022-10-19T11:03:26.288Z,20716.00
2022-10-19T11:04:16.025Z,76112.00
2022-10-19T11:05:17.703Z,76313.00
2022-10-19T11:06:16.020Z,75987.00
2022-10-19T11:07:17.726Z,74991.00
2022-10-19T11:08:17.351Z,74780.00
2022-10-19T11:09:15.921Z,75020.00
2022-10-19T11:10:18.644Z,75858.00
2022-10-19T11:11:15.897Z,75550.00
2022-10-19T11:12:15.903Z,74689.00
2022-10-19T11:13:17.634Z,73550.00
2022-10-19T11:14:15.853Z,72770.00
2022-10-19T11:15:16.127Z,34614.00
2022-10-19T11:16:16.228Z,71722.00
2022-10-19T11:17:16.500Z,36813.00
2022-10-19T11:18:15.825Z,35507.00
2022-10-19T11:20:16.432Z,34918.00
2022-10-19T11:21:15.798Z,32366.00
2022-10-19T11:22:15.821Z,33548.00
2022-10-19T11:23:15.739Z,34207.00
2022-10-19T11:24:15.716Z,31096.00
2022-10-19T11:25:16.653Z,38193.00
2022-10-19T11:26:17.358Z,34413.00
2022-10-19T11:27:16.550Z,34201.00
2022-10-19T11:28:15.694Z,31222.00
2022-10-19T11:29:15.659Z,29182.00
2022-10-19T11:30:17.361Z,31305.00
2022-10-19T11:31:15.713Z,32993.00
2022-10-19T11:32:15.629Z,32528.00
2022-10-19T11:33:16.355Z,30832.00
2022-10-19T11:34:16.598Z,32240.00
2022-10-19T11:35:22.460Z,33959.00
2022-10-19T11:36:15.842Z,36312.00
2022-10-19T11:37:15.582Z,34531.00
2022-10-19T11:38:20.102Z,35429.00
2022-10-19T11:39:15.554Z,73959.00
2022-10-19T11:40:18.694Z,73979.00
2022-10-19T11:41:18.660Z,73652.00
2022-10-19T11:42:15.783Z,73469.00
2022-10-19T11:43:15.503Z,73692.00
2022-10-19T11:44:15.507Z,73347.00
2022-10-19T11:45:15.695Z,74433.00
2022-10-19T11:46:15.511Z,73624.00
2022-10-19T11:47:15.441Z,73391.00
2022-10-19T11:48:15.993Z,74958.00
2022-10-19T11:49:16.243Z,74447.00
2022-10-19T11:50:15.577Z,76547.00
2022-10-19T11:51:21.615Z,75469.00
2022-10-19T11:52:15.462Z,69469.00
2022-10-19T11:53:17.331Z,28509.00
2022-10-19T11:54:15.452Z,39886.00
2022-10-19T11:55:15.348Z,32201.00
2022-10-19T11:56:15.385Z,30244.00
2022-10-19T11:57:16.359Z,30883.00
2022-10-19T11:58:15.328Z,29268.00
2022-10-19T11:59:15.517Z,31591.00
2022-10-19T12:00:34.184Z,28810.00
2022-10-19T12:01:15.239Z,29762.00
2022-10-19T12:02:15.643Z,27075.00
2022-10-19T12:03:15.307Z,31065.00
2022-10-19T12:04:15.367Z,36650.00
2022-10-19T12:05:15.269Z,30588.00
2022-10-19T12:06:15.182Z,27203.00
2022-10-19T12:07:15.178Z,23198.00
2022-10-19T12:08:15.267Z,24895.00
2022-10-19T12:09:15.197Z,36139.00
2022-10-19T12:10:15.534Z,33867.00
2022-10-19T12:11:15.114Z,34930.00
2022-10-19T12:12:15.170Z,72253.00
2022-10-19T12:13:15.877Z,72611.00
2022-10-19T12:14:15.959Z,71908.00
2022-10-19T12:15:15.098Z,37982.00
2022-10-19T12:16:16.217Z,35110.00
2022-10-19T12:17:20.093Z,34355.00
2022-10-19T12:18:15.027Z,34149.00
2022-10-19T12:19:15.799Z,31607.00
2022-10-19T12:20:17.486Z,31993.00
2022-10-19T12:21:15.439Z,72359.00
2022-10-19T12:22:14.977Z,71804.00
2022-10-19T12:23:14.957Z,36101.00
2022-10-19T12:24:14.955Z,36887.00
2022-10-19T12:25:14.934Z,36039.00
2022-10-19T12:26:15.654Z,38059.00
2022-10-19T12:27:15.011Z,37542.00
2022-10-19T12:28:14.887Z,35212.00
2022-10-19T12:29:14.887Z,35843.00
2022-10-19T12:30:14.857Z,36827.00
2022-10-19T12:31:14.867Z,72504.00